sensor_id;sensor_type;location;lat;lon;timestamp;temperature;humidity
13711;DHT22;6927;51.256;9.410;2023-05-01T00:00:09;5.80;99.90
13711;DHT22;6927;51.256;9.410;2023-05-01T00:02:35;5.80;99.90
13711;DHT22;6927;51.256;9.410;2023-05-01T00:05:02;5.80;99.90
13711;DHT22;6927;51.256;9.410;2023-05-01T00:07:28;5.80;39.90
13711;DHT22;6927;51.256;9.410;2023-05-01T00:09:55;5.80;1.00
13711;DHT22;6927;51.256;9.410;2023-05-01T00:12:21;5.80;1.00
13711;DHT22;6927;51.256;9.410;2023-05-01T00:14:47;5.80;1.00
13711;DHT22;6927;51.256;9.410;2023-05-01T00:17:13;5.80;1.00
13711;DHT22;6927;51.256;9.410;2023-05-01T00:19:38;5.70;99.90
13711;DHT22;6927;51.256;9.410;2023-05-01T00:22:05;5.70;1.00
13711;DHT22;6927;51.256;9.410;2023-05-01T00:24:31;5.70;99.90
13711;DHT22;6927;51.256;9.410;2023-05-01T00:26:56;5.70;45.60
13711;DHT22;6927;51.256;9.410;2023-05-01T00:29:22;5.60;14.20
13711;DHT22;6927;51.256;9.410;2023-05-01T00:31:47;5.60;99.90
13711;DHT22;6927;51.256;9.410;2023-05-01T00:34:13;5.50;30.80
13711;DHT22;6927;51.256;9.410;2023-05-01T00:36:39;5.50;99.90
13711;DHT22;6927;51.256;9.410;2023-05-01T00:39:05;5.50;1.00
13711;DHT22;6927;51.256;9.410;2023-05-01T00:41:34;5.50;1.00
13711;DHT22;6927;51.256;9.410;2023-05-01T00:43:59;5.50;1.00
13711;DHT22;6927;51.256;9.410;2023-05-01T00:46:25;5.40;1.00
13711;DHT22;6927;51.256;9.410;2023-05-01T00:48:52;5.50;1.00
13711;DHT22;6927;51.256;9.410;2023-05-01T00:51:19;5.50;1.00
13711;DHT22;6927;51.256;9.410;2023-05-01T00:53:45;5.50;1.00
13711;DHT22;6927;51.256;9.410;2023-05-01T00:56:11;5.50;1.00
13711;DHT22;6927;51.256;9.410;2023-05-01T00:58:37;5.50;1.00
13711;DHT22;6927;51.256;9.410;2023-05-01T01:01:03;5.50;99.90
13711;DHT22;6927;51.256;9.410;2023-05-01T01:03:29;5.50;99.90
13711;DHT22;6927;51.256;9.410;2023-05-01T01:06:03;5.50;99.90
13711;DHT22;6927;51.256;9.410;2023-05-01T01:08:33;5.50;99.90
13711;DHT22;6927;51.256;9.410;2023-05-01T01:13:42;5.50;99.90
13711;DHT22;6927;51.256;9.410;2023-05-01T01:18:49;5.60;1.00
13711;DHT22;6927;51.256;9.410;2023-05-01T01:21:26;5.50;99.90
13711;DHT22;6927;51.256;9.410;2023-05-01T01:26:50;5.50;99.90
13711;DHT22;6927;51.256;9.410;2023-05-01T01:35:11;5.40;99.90
13711;DHT22;6927;51.256;9.410;2023-05-01T01:38:32;5.40;99.90
13711;DHT22;6927;51.256;9.410;2023-05-01T01:41:00;5.40;1.00
13711;DHT22;6927;51.256;9.410;2023-05-01T01:43:25;5.40;1.00
13711;DHT22;6927;51.256;9.410;2023-05-01T01:45:56;5.40;99.90
13711;DHT22;6927;51.256;9.410;2023-05-01T01:48:30;5.30;1.00
13711;DHT22;6927;51.256;9.410;2023-05-01T01:50:58;5.30;1.00
13711;DHT22;6927;51.256;9.410;2023-05-01T01:53:26;5.30;83.00
13711;DHT22;6927;51.256;9.410;2023-05-01T01:55:53;5.30;99.90
13711;DHT22;6927;51.256;9.410;2023-05-01T01:58:21;5.30;99.90
13711;DHT22;6927;51.256;9.410;2023-05-01T02:00:51;5.20;1.00
13711;DHT22;6927;51.256;9.410;2023-05-01T02:03:18;5.20;1.00
13711;DHT22;6927;51.256;9.410;2023-05-01T02:05:45;5.20;99.90
13711;DHT22;6927;51.256;9.410;2023-05-01T02:08:13;5.20;1.00
13711;DHT22;6927;51.256;9.410;2023-05-01T02:10:40;5.20;1.00
13711;DHT22;6927;51.256;9.410;2023-05-01T02:13:07;5.20;1.00
13711;DHT22;6927;51.256;9.410;2023-05-01T02:15:34;5.30;99.90
13711;DHT22;6927;51.256;9.410;2023-05-01T02:18:04;5.30;99.90
13711;DHT22;6927;51.256;9.410;2023-05-01T02:20:31;5.30;92.10
13711;DHT22;6927;51.256;9.410;2023-05-01T02:22:57;5.30;1.00
13711;DHT22;6927;51.256;9.410;2023-05-01T02:25:24;5.20;1.00
13711;DHT22;6927;51.256;9.410;2023-05-01T02:27:56;5.20;99.90
13711;DHT22;6927;51.256;9.410;2023-05-01T02:30:24;5.20;99.90
13711;DHT22;6927;51.256;9.410;2023-05-01T02:32:52;5.10;1.00
13711;DHT22;6927;51.256;9.410;2023-05-01T02:35:18;5.10;99.90
13711;DHT22;6927;51.256;9.410;2023-05-01T02:37:44;5.10;41.40
13711;DHT22;6927;51.256;9.410;2023-05-01T02:40:14;5.10;99.90
13711;DHT22;6927;51.256;9.410;2023-05-01T02:42:44;5.00;99.90
13711;DHT22;6927;51.256;9.410;2023-05-01T02:45:17;5.00;1.00
13711;DHT22;6927;51.256;9.410;2023-05-01T02:47:45;5.00;1.00
13711;DHT22;6927;51.256;9.410;2023-05-01T02:50:13;5.00;1.00
13711;DHT22;6927;51.256;9.410;2023-05-01T02:52:40;5.00;44.90
13711;DHT22;6927;51.256;9.410;2023-05-01T02:55:06;5.00;99.90
13711;DHT22;6927;51.256;9.410;2023-05-01T02:57:32;5.00;99.90
13711;DHT22;6927;51.256;9.410;2023-05-01T02:59:58;5.00;99.90
13711;DHT22;6927;51.256;9.410;2023-05-01T03:02:24;5.00;7.10
13711;DHT22;6927;51.256;9.410;2023-05-01T03:04:50;5.00;1.00
13711;DHT22;6927;51.256;9.410;2023-05-01T03:07:15;5.00;1.00
13711;DHT22;6927;51.256;9.410;2023-05-01T03:09:41;5.00;1.00
13711;DHT22;6927;51.256;9.410;2023-05-01T03:12:06;5.00;1.00
13711;DHT22;6927;51.256;9.410;2023-05-01T03:14:32;5.00;99.90
13711;DHT22;6927;51.256;9.410;2023-05-01T03:16:57;5.00;1.00
13711;DHT22;6927;51.256;9.410;2023-05-01T03:19:23;5.00;99.90
13711;DHT22;6927;51.256;9.410;2023-05-01T03:21:49;5.00;99.90
13711;DHT22;6927;51.256;9.410;2023-05-01T03:24:14;5.00;99.90
13711;DHT22;6927;51.256;9.410;2023-05-01T03:26:40;5.00;99.90
13711;DHT22;6927;51.256;9.410;2023-05-01T03:29:05;4.90;1.00
13711;DHT22;6927;51.256;9.410;2023-05-01T03:31:31;4.90;1.00
13711;DHT22;6927;51.256;9.410;2023-05-01T03:33:56;4.80;1.00
13711;DHT22;6927;51.256;9.410;2023-05-01T03:36:22;4.90;1.00
13711;DHT22;6927;51.256;9.410;2023-05-01T03:38:49;4.90;99.90
13711;DHT22;6927;51.256;9.410;2023-05-01T03:41:15;4.90;1.00
13711;DHT22;6927;51.256;9.410;2023-05-01T03:43:40;4.80;99.90
13711;DHT22;6927;51.256;9.410;2023-05-01T03:46:06;4.80;99.90
13711;DHT22;6927;51.256;9.410;2023-05-01T03:48:31;4.70;99.90
13711;DHT22;6927;51.256;9.410;2023-05-01T03:50:57;4.70;1.00
13711;DHT22;6927;51.256;9.410;2023-05-01T03:53:23;4.80;1.00
13711;DHT22;6927;51.256;9.410;2023-05-01T03:55:51;4.70;1.00
13711;DHT22;6927;51.256;9.410;2023-05-01T03:58:17;4.70;1.00
13711;DHT22;6927;51.256;9.410;2023-05-01T04:00:42;4.70;1.00
13711;DHT22;6927;51.256;9.410;2023-05-01T04:03:08;4.70;1.00
13711;DHT22;6927;51.256;9.410;2023-05-01T04:05:34;4.70;1.00
13711;DHT22;6927;51.256;9.410;2023-05-01T04:08:00;4.70;1.00
13711;DHT22;6927;51.256;9.410;2023-05-01T04:10:25;4.70;1.00
13711;DHT22;6927;51.256;9.410;2023-05-01T04:12:51;4.70;1.00
13711;DHT22;6927;51.256;9.410;2023-05-01T04:15:16;4.70;1.00
13711;DHT22;6927;51.256;9.410;2023-05-01T04:17:42;4.60;99.90
13711;DHT22;6927;51.256;9.410;2023-05-01T04:20:08;4.60;99.90
13711;DHT22;6927;51.256;9.410;2023-05-01T04:22:35;4.60;85.40
13711;DHT22;6927;51.256;9.410;2023-05-01T04:25:01;4.70;1.00
13711;DHT22;6927;51.256;9.410;2023-05-01T04:27:26;4.70;1.00
13711;DHT22;6927;51.256;9.410;2023-05-01T04:29:52;4.70;1.00
13711;DHT22;6927;51.256;9.410;2023-05-01T04:32:17;4.70;99.90
13711;DHT22;6927;51.256;9.410;2023-05-01T04:34:43;4.70;99.90
13711;DHT22;6927;51.256;9.410;2023-05-01T04:37:09;4.70;99.90
13711;DHT22;6927;51.256;9.410;2023-05-01T04:39:35;4.80;99.90
13711;DHT22;6927;51.256;9.410;2023-05-01T04:42:04;4.90;82.20
13711;DHT22;6927;51.256;9.410;2023-05-01T04:44:29;4.90;1.00
13711;DHT22;6927;51.256;9.410;2023-05-01T04:46:55;4.90;1.00
13711;DHT22;6927;51.256;9.410;2023-05-01T04:49:21;5.00;1.00
13711;DHT22;6927;51.256;9.410;2023-05-01T04:51:47;5.00;1.00
13711;DHT22;6927;51.256;9.410;2023-05-01T04:54:12;5.10;1.00
13711;DHT22;6927;51.256;9.410;2023-05-01T04:56:38;5.20;1.00
13711;DHT22;6927;51.256;9.410;2023-05-01T04:59:04;5.30;99.90
13711;DHT22;6927;51.256;9.410;2023-05-01T05:01:29;5.40;99.90
13711;DHT22;6927;51.256;9.410;2023-05-01T05:03:55;5.50;99.90
13711;DHT22;6927;51.256;9.410;2023-05-01T05:06:20;5.50;99.90
13711;DHT22;6927;51.256;9.410;2023-05-01T05:08:46;5.60;1.00
13711;DHT22;6927;51.256;9.410;2023-05-01T05:11:18;5.70;1.00
13711;DHT22;6927;51.256;9.410;2023-05-01T05:13:44;5.90;99.90
13711;DHT22;6927;51.256;9.410;2023-05-01T05:16:10;5.90;99.90
13711;DHT22;6927;51.256;9.410;2023-05-01T05:18:36;6.10;99.90
13711;DHT22;6927;51.256;9.410;2023-05-01T05:21:04;6.20;1.00
13711;DHT22;6927;51.256;9.410;2023-05-01T05:23:30;6.30;99.90
13711;DHT22;6927;51.256;9.410;2023-05-01T05:25:56;6.30;99.90
13711;DHT22;6927;51.256;9.410;2023-05-01T05:28:26;6.40;1.00
13711;DHT22;6927;51.256;9.410;2023-05-01T05:30:52;6.50;1.00
13711;DHT22;6927;51.256;9.410;2023-05-01T05:33:18;6.60;44.20
13711;DHT22;6927;51.256;9.410;2023-05-01T05:35:43;6.70;1.00
13711;DHT22;6927;51.256;9.410;2023-05-01T05:38:09;6.80;1.00
13711;DHT22;6927;51.256;9.410;2023-05-01T05:40:35;6.90;1.00
13711;DHT22;6927;51.256;9.410;2023-05-01T05:43:00;7.00;99.90
13711;DHT22;6927;51.256;9.410;2023-05-01T05:45:26;7.20;1.00
13711;DHT22;6927;51.256;9.410;2023-05-01T05:47:51;7.30;1.00
13711;DHT22;6927;51.256;9.410;2023-05-01T05:50:17;7.40;32.30
13711;DHT22;6927;51.256;9.410;2023-05-01T05:52:43;7.60;1.00
13711;DHT22;6927;51.256;9.410;2023-05-01T05:55:08;7.90;99.90
13711;DHT22;6927;51.256;9.410;2023-05-01T05:57:34;8.10;1.00
13711;DHT22;6927;51.256;9.410;2023-05-01T06:00:02;8.30;99.90
13711;DHT22;6927;51.256;9.410;2023-05-01T06:02:30;8.50;1.00
13711;DHT22;6927;51.256;9.410;2023-05-01T06:04:56;8.80;1.00
13711;DHT22;6927;51.256;9.410;2023-05-01T06:07:22;9.00;1.00
13711;DHT22;6927;51.256;9.410;2023-05-01T06:09:48;9.30;1.00
13711;DHT22;6927;51.256;9.410;2023-05-01T06:12:13;9.50;1.00
13711;DHT22;6927;51.256;9.410;2023-05-01T06:14:39;9.70;99.90
13711;DHT22;6927;51.256;9.410;2023-05-01T06:17:05;9.90;99.70
13711;DHT22;6927;51.256;9.410;2023-05-01T06:19:31;10.10;25.60
13711;DHT22;6927;51.256;9.410;2023-05-01T06:21:57;10.20;97.90
13711;DHT22;6927;51.256;9.410;2023-05-01T06:24:22;10.50;99.90
13711;DHT22;6927;51.256;9.410;2023-05-01T06:26:48;10.70;18.30
13711;DHT22;6927;51.256;9.410;2023-05-01T06:29:13;11.00;1.00
13711;DHT22;6927;51.256;9.410;2023-05-01T06:31:39;11.20;99.90
13711;DHT22;6927;51.256;9.410;2023-05-01T06:34:05;11.50;99.90
13711;DHT22;6927;51.256;9.410;2023-05-01T06:36:30;11.80;99.90
13711;DHT22;6927;51.256;9.410;2023-05-01T06:38:56;12.10;99.90
13711;DHT22;6927;51.256;9.410;2023-05-01T06:41:21;12.50;99.90
13711;DHT22;6927;51.256;9.410;2023-05-01T06:43:47;12.60;99.90
13711;DHT22;6927;51.256;9.410;2023-05-01T06:46:13;12.90;99.90
13711;DHT22;6927;51.256;9.410;2023-05-01T06:48:38;13.30;99.90
13711;DHT22;6927;51.256;9.410;2023-05-01T06:51:04;13.60;99.90
13711;DHT22;6927;51.256;9.410;2023-05-01T06:53:29;14.10;99.90
13711;DHT22;6927;51.256;9.410;2023-05-01T06:55:55;14.70;99.90
13711;DHT22;6927;51.256;9.410;2023-05-01T06:58:21;15.10;99.90
13711;DHT22;6927;51.256;9.410;2023-05-01T07:00:46;15.10;99.90
13711;DHT22;6927;51.256;9.410;2023-05-01T07:03:12;15.10;99.90
13711;DHT22;6927;51.256;9.410;2023-05-01T07:05:37;15.00;1.00
13711;DHT22;6927;51.256;9.410;2023-05-01T07:08:05;15.30;1.00
13711;DHT22;6927;51.256;9.410;2023-05-01T07:10:31;15.80;1.00
13711;DHT22;6927;51.256;9.410;2023-05-01T07:12:58;16.00;1.00
13711;DHT22;6927;51.256;9.410;2023-05-01T07:15:24;15.80;1.00
13711;DHT22;6927;51.256;9.410;2023-05-01T07:17:49;16.20;1.00
13711;DHT22;6927;51.256;9.410;2023-05-01T07:20:15;16.40;1.00
13711;DHT22;6927;51.256;9.410;2023-05-01T07:22:41;16.30;1.00
13711;DHT22;6927;51.256;9.410;2023-05-01T07:25:07;16.10;1.00
13711;DHT22;6927;51.256;9.410;2023-05-01T07:27:33;16.20;1.00
13711;DHT22;6927;51.256;9.410;2023-05-01T07:29:59;16.40;1.00
13711;DHT22;6927;51.256;9.410;2023-05-01T07:32:25;16.10;1.00
13711;DHT22;6927;51.256;9.410;2023-05-01T07:34:51;16.10;1.00
13711;DHT22;6927;51.256;9.410;2023-05-01T07:37:17;16.10;1.00
13711;DHT22;6927;51.256;9.410;2023-05-01T07:39:43;16.40;1.00
13711;DHT22;6927;51.256;9.410;2023-05-01T07:42:09;17.00;1.00
13711;DHT22;6927;51.256;9.410;2023-05-01T07:44:34;17.20;1.00
13711;DHT22;6927;51.256;9.410;2023-05-01T07:47:04;17.40;1.00
13711;DHT22;6927;51.256;9.410;2023-05-01T07:49:37;17.70;1.00
13711;DHT22;6927;51.256;9.410;2023-05-01T07:52:03;17.70;1.00
13711;DHT22;6927;51.256;9.410;2023-05-01T07:54:32;17.40;1.00
13711;DHT22;6927;51.256;9.410;2023-05-01T07:56:57;17.20;1.00
13711;DHT22;6927;51.256;9.410;2023-05-01T07:59:23;17.70;1.00
13711;DHT22;6927;51.256;9.410;2023-05-01T08:01:48;18.50;1.00
13711;DHT22;6927;51.256;9.410;2023-05-01T08:04:14;18.40;1.00
13711;DHT22;6927;51.256;9.410;2023-05-01T08:06:41;18.40;1.00
13711;DHT22;6927;51.256;9.410;2023-05-01T08:09:06;18.40;1.00
13711;DHT22;6927;51.256;9.410;2023-05-01T08:11:32;18.40;1.00
13711;DHT22;6927;51.256;9.410;2023-05-01T08:13:58;18.20;1.00
13711;DHT22;6927;51.256;9.410;2023-05-01T08:16:23;19.00;1.00
13711;DHT22;6927;51.256;9.410;2023-05-01T08:18:49;19.30;1.00
13711;DHT22;6927;51.256;9.410;2023-05-01T08:21:15;19.20;1.00
13711;DHT22;6927;51.256;9.410;2023-05-01T08:23:40;18.80;1.00
13711;DHT22;6927;51.256;9.410;2023-05-01T08:26:06;18.60;1.00
13711;DHT22;6927;51.256;9.410;2023-05-01T08:28:34;19.10;1.00
13711;DHT22;6927;51.256;9.410;2023-05-01T08:30:59;19.50;1.00
13711;DHT22;6927;51.256;9.410;2023-05-01T08:33:25;19.20;1.00
13711;DHT22;6927;51.256;9.410;2023-05-01T08:35:51;18.60;1.00
13711;DHT22;6927;51.256;9.410;2023-05-01T08:38:16;18.30;1.00
13711;DHT22;6927;51.256;9.410;2023-05-01T08:40:47;17.60;1.00
13711;DHT22;6927;51.256;9.410;2023-05-01T08:43:16;17.70;1.00
13711;DHT22;6927;51.256;9.410;2023-05-01T08:45:42;18.30;1.00
13711;DHT22;6927;51.256;9.410;2023-05-01T08:48:08;18.30;1.00
13711;DHT22;6927;51.256;9.410;2023-05-01T08:50:38;17.80;1.00
13711;DHT22;6927;51.256;9.410;2023-05-01T08:53:05;17.50;1.00
13711;DHT22;6927;51.256;9.410;2023-05-01T08:55:31;17.60;1.00
13711;DHT22;6927;51.256;9.410;2023-05-01T08:57:58;17.60;1.00
13711;DHT22;6927;51.256;9.410;2023-05-01T09:00:24;18.00;1.00
13711;DHT22;6927;51.256;9.410;2023-05-01T09:02:50;18.10;1.00
13711;DHT22;6927;51.256;9.410;2023-05-01T09:05:17;18.00;1.00
13711;DHT22;6927;51.256;9.410;2023-05-01T09:07:44;18.00;1.00
13711;DHT22;6927;51.256;9.410;2023-05-01T09:10:11;18.60;1.00
13711;DHT22;6927;51.256;9.410;2023-05-01T09:12:38;18.90;1.00
13711;DHT22;6927;51.256;9.410;2023-05-01T09:15:04;19.20;1.00
13711;DHT22;6927;51.256;9.410;2023-05-01T09:17:31;19.80;1.00
13711;DHT22;6927;51.256;9.410;2023-05-01T09:19:57;20.40;1.00
13711;DHT22;6927;51.256;9.410;2023-05-01T09:22:23;21.00;1.00
13711;DHT22;6927;51.256;9.410;2023-05-01T09:24:49;21.50;1.00
13711;DHT22;6927;51.256;9.410;2023-05-01T09:27:14;22.10;1.00
13711;DHT22;6927;51.256;9.410;2023-05-01T09:29:45;23.30;1.00
13711;DHT22;6927;51.256;9.410;2023-05-01T09:32:25;23.80;1.00
13711;DHT22;6927;51.256;9.410;2023-05-01T09:34:55;23.20;1.00
13711;DHT22;6927;51.256;9.410;2023-05-01T09:37:33;22.40;1.00
13711;DHT22;6927;51.256;9.410;2023-05-01T09:40:12;21.70;1.00
13711;DHT22;6927;51.256;9.410;2023-05-01T09:42:49;21.50;1.00
13711;DHT22;6927;51.256;9.410;2023-05-01T09:45:16;21.90;1.00
13711;DHT22;6927;51.256;9.410;2023-05-01T09:47:44;22.60;1.00
13711;DHT22;6927;51.256;9.410;2023-05-01T09:50:12;22.60;1.00
13711;DHT22;6927;51.256;9.410;2023-05-01T09:52:52;22.20;1.00
13711;DHT22;6927;51.256;9.410;2023-05-01T09:55:18;21.50;1.00
13711;DHT22;6927;51.256;9.410;2023-05-01T09:57:45;21.50;1.00
13711;DHT22;6927;51.256;9.410;2023-05-01T10:00:13;21.40;1.00
13711;DHT22;6927;51.256;9.410;2023-05-01T10:02:41;21.60;1.00
13711;DHT22;6927;51.256;9.410;2023-05-01T10:05:08;21.50;1.00
13711;DHT22;6927;51.256;9.410;2023-05-01T10:07:34;21.80;1.00
13711;DHT22;6927;51.256;9.410;2023-05-01T10:12:41;22.30;1.00
13711;DHT22;6927;51.256;9.410;2023-05-01T10:15:08;21.90;1.00
13711;DHT22;6927;51.256;9.410;2023-05-01T10:17:34;21.60;1.00
13711;DHT22;6927;51.256;9.410;2023-05-01T10:20:00;22.10;1.00
13711;DHT22;6927;51.256;9.410;2023-05-01T10:22:26;23.00;1.00
13711;DHT22;6927;51.256;9.410;2023-05-01T10:24:52;23.20;1.00
13711;DHT22;6927;51.256;9.410;2023-05-01T10:27:18;22.70;1.00
13711;DHT22;6927;51.256;9.410;2023-05-01T10:29:47;23.00;1.00
13711;DHT22;6927;51.256;9.410;2023-05-01T10:32:14;22.50;1.00
13711;DHT22;6927;51.256;9.410;2023-05-01T10:34:47;22.30;1.00
13711;DHT22;6927;51.256;9.410;2023-05-01T10:37:18;21.20;1.00
13711;DHT22;6927;51.256;9.410;2023-05-01T10:39:46;20.70;1.00
13711;DHT22;6927;51.256;9.410;2023-05-01T10:42:11;20.20;1.00
13711;DHT22;6927;51.256;9.410;2023-05-01T10:44:41;20.10;1.00
13711;DHT22;6927;51.256;9.410;2023-05-01T10:50:08;19.90;1.00
13711;DHT22;6927;51.256;9.410;2023-05-01T10:55:38;19.70;1.00
13711;DHT22;6927;51.256;9.410;2023-05-01T10:58:04;19.70;1.00
13711;DHT22;6927;51.256;9.410;2023-05-01T11:00:30;20.10;1.00
13711;DHT22;6927;51.256;9.410;2023-05-01T11:08:29;22.00;1.00
13711;DHT22;6927;51.256;9.410;2023-05-01T11:10:55;22.10;1.00
13711;DHT22;6927;51.256;9.410;2023-05-01T11:13:59;21.80;1.00
13711;DHT22;6927;51.256;9.410;2023-05-01T11:19:07;21.90;1.00
13711;DHT22;6927;51.256;9.410;2023-05-01T11:21:35;22.50;1.00
13711;DHT22;6927;51.256;9.410;2023-05-01T11:24:05;22.90;1.00
13711;DHT22;6927;51.256;9.410;2023-05-01T11:26:36;21.90;1.00
13711;DHT22;6927;51.256;9.410;2023-05-01T11:29:03;21.50;1.00
13711;DHT22;6927;51.256;9.410;2023-05-01T11:31:29;21.30;1.00
13711;DHT22;6927;51.256;9.410;2023-05-01T11:33:55;21.90;1.00
13711;DHT22;6927;51.256;9.410;2023-05-01T11:36:22;22.00;1.00
13711;DHT22;6927;51.256;9.410;2023-05-01T11:38:51;21.80;1.00
13711;DHT22;6927;51.256;9.410;2023-05-01T11:41:21;21.40;1.00
13711;DHT22;6927;51.256;9.410;2023-05-01T11:43:56;21.10;1.00
13711;DHT22;6927;51.256;9.410;2023-05-01T11:46:29;20.60;1.00
13711;DHT22;6927;51.256;9.410;2023-05-01T11:48:59;20.00;1.00
13711;DHT22;6927;51.256;9.410;2023-05-01T11:51:26;20.50;1.00
13711;DHT22;6927;51.256;9.410;2023-05-01T11:54:02;20.40;1.00
13711;DHT22;6927;51.256;9.410;2023-05-01T11:56:29;20.30;1.00
13711;DHT22;6927;51.256;9.410;2023-05-01T11:58:55;20.30;1.00
13711;DHT22;6927;51.256;9.410;2023-05-01T12:01:35;20.20;1.00
13711;DHT22;6927;51.256;9.410;2023-05-01T12:04:02;20.30;1.00
13711;DHT22;6927;51.256;9.410;2023-05-01T12:06:42;20.20;1.00
13711;DHT22;6927;51.256;9.410;2023-05-01T12:09:10;20.70;1.00
13711;DHT22;6927;51.256;9.410;2023-05-01T12:11:39;21.10;1.00
13711;DHT22;6927;51.256;9.410;2023-05-01T12:14:05;21.40;1.00
13711;DHT22;6927;51.256;9.410;2023-05-01T12:16:31;21.40;1.00
13711;DHT22;6927;51.256;9.410;2023-05-01T12:18:57;22.00;1.00
13711;DHT22;6927;51.256;9.410;2023-05-01T12:21:23;22.20;1.00
13711;DHT22;6927;51.256;9.410;2023-05-01T12:23:50;21.90;1.00
13711;DHT22;6927;51.256;9.410;2023-05-01T12:26:23;21.30;1.00
13711;DHT22;6927;51.256;9.410;2023-05-01T12:29:03;20.90;1.00
13711;DHT22;6927;51.256;9.410;2023-05-01T12:31:29;21.40;1.00
13711;DHT22;6927;51.256;9.410;2023-05-01T12:34:00;21.60;1.00
13711;DHT22;6927;51.256;9.410;2023-05-01T12:36:28;21.50;1.00
13711;DHT22;6927;51.256;9.410;2023-05-01T12:38:59;21.60;1.00
13711;DHT22;6927;51.256;9.410;2023-05-01T12:41:40;21.30;1.00
13711;DHT22;6927;51.256;9.410;2023-05-01T12:46:51;20.70;1.00
13711;DHT22;6927;51.256;9.410;2023-05-01T12:49:18;20.90;1.00
13711;DHT22;6927;51.256;9.410;2023-05-01T12:51:47;21.20;1.00
13711;DHT22;6927;51.256;9.410;2023-05-01T12:56:43;21.30;1.00
13711;DHT22;6927;51.256;9.410;2023-05-01T12:59:19;21.40;1.00
13711;DHT22;6927;51.256;9.410;2023-05-01T13:01:46;21.50;1.00
13711;DHT22;6927;51.256;9.410;2023-05-01T13:04:11;21.70;1.00
13711;DHT22;6927;51.256;9.410;2023-05-01T13:06:37;21.80;1.00
13711;DHT22;6927;51.256;9.410;2023-05-01T13:09:07;21.20;1.00
13711;DHT22;6927;51.256;9.410;2023-05-01T13:11:36;21.00;1.00
13711;DHT22;6927;51.256;9.410;2023-05-01T13:14:07;21.00;1.00
13711;DHT22;6927;51.256;9.410;2023-05-01T13:16:43;21.30;1.00
13711;DHT22;6927;51.256;9.410;2023-05-01T13:19:10;21.80;1.00
13711;DHT22;6927;51.256;9.410;2023-05-01T13:21:45;22.50;1.00
13711;DHT22;6927;51.256;9.410;2023-05-01T13:24:10;21.50;1.00
13711;DHT22;6927;51.256;9.410;2023-05-01T13:26:36;21.40;1.00
13711;DHT22;6927;51.256;9.410;2023-05-01T13:29:03;21.80;1.00
13711;DHT22;6927;51.256;9.410;2023-05-01T13:31:30;22.20;1.00
13711;DHT22;6927;51.256;9.410;2023-05-01T13:33:57;22.50;1.00
13711;DHT22;6927;51.256;9.410;2023-05-01T13:36:24;22.20;1.00
13711;DHT22;6927;51.256;9.410;2023-05-01T13:38:53;21.70;1.00
13711;DHT22;6927;51.256;9.410;2023-05-01T13:41:21;21.50;1.00
13711;DHT22;6927;51.256;9.410;2023-05-01T13:43:51;21.70;1.00
13711;DHT22;6927;51.256;9.410;2023-05-01T13:46:19;21.50;1.00
13711;DHT22;6927;51.256;9.410;2023-05-01T13:48:45;21.20;1.00
13711;DHT22;6927;51.256;9.410;2023-05-01T13:51:13;21.30;1.00
13711;DHT22;6927;51.256;9.410;2023-05-01T13:53:40;21.50;1.00
13711;DHT22;6927;51.256;9.410;2023-05-01T13:56:08;21.60;1.00
13711;DHT22;6927;51.256;9.410;2023-05-01T13:58:34;21.90;1.00
13711;DHT22;6927;51.256;9.410;2023-05-01T14:01:00;21.90;1.00
13711;DHT22;6927;51.256;9.410;2023-05-01T14:03:26;21.90;1.00
13711;DHT22;6927;51.256;9.410;2023-05-01T14:05:52;21.90;1.00
13711;DHT22;6927;51.256;9.410;2023-05-01T14:08:22;21.90;1.00
13711;DHT22;6927;51.256;9.410;2023-05-01T14:10:51;22.00;1.00
13711;DHT22;6927;51.256;9.410;2023-05-01T14:13:16;21.90;1.00
13711;DHT22;6927;51.256;9.410;2023-05-01T14:15:43;21.60;1.00
13711;DHT22;6927;51.256;9.410;2023-05-01T14:18:15;21.10;1.00
13711;DHT22;6927;51.256;9.410;2023-05-01T14:20:44;20.60;1.00
13711;DHT22;6927;51.256;9.410;2023-05-01T14:23:14;20.50;1.00
13711;DHT22;6927;51.256;9.410;2023-05-01T14:25:44;20.20;1.00
13711;DHT22;6927;51.256;9.410;2023-05-01T14:28:10;20.00;1.00
13711;DHT22;6927;51.256;9.410;2023-05-01T14:30:40;19.90;1.00
13711;DHT22;6927;51.256;9.410;2023-05-01T14:33:08;19.90;1.00
13711;DHT22;6927;51.256;9.410;2023-05-01T14:35:34;19.90;1.00
13711;DHT22;6927;51.256;9.410;2023-05-01T14:38:11;19.80;1.00
13711;DHT22;6927;51.256;9.410;2023-05-01T14:40:41;19.90;1.00
13711;DHT22;6927;51.256;9.410;2023-05-01T14:43:09;19.90;1.00
13711;DHT22;6927;51.256;9.410;2023-05-01T14:45:40;19.90;1.00
13711;DHT22;6927;51.256;9.410;2023-05-01T14:48:06;19.80;1.00
13711;DHT22;6927;51.256;9.410;2023-05-01T14:50:32;19.80;1.00
13711;DHT22;6927;51.256;9.410;2023-05-01T14:52:59;19.90;1.00
13711;DHT22;6927;51.256;9.410;2023-05-01T14:55:29;20.00;1.00
13711;DHT22;6927;51.256;9.410;2023-05-01T14:57:57;20.00;1.00
13711;DHT22;6927;51.256;9.410;2023-05-01T15:00:23;20.10;1.00
13711;DHT22;6927;51.256;9.410;2023-05-01T15:02:50;20.10;1.00
13711;DHT22;6927;51.256;9.410;2023-05-01T15:05:16;20.20;1.00
13711;DHT22;6927;51.256;9.410;2023-05-01T15:07:42;20.10;1.00
13711;DHT22;6927;51.256;9.410;2023-05-01T15:10:08;20.10;1.00
13711;DHT22;6927;51.256;9.410;2023-05-01T15:12:33;19.90;1.00
13711;DHT22;6927;51.256;9.410;2023-05-01T15:14:59;19.70;1.00
13711;DHT22;6927;51.256;9.410;2023-05-01T15:17:24;19.70;1.00
13711;DHT22;6927;51.256;9.410;2023-05-01T15:19:51;19.70;1.00
13711;DHT22;6927;51.256;9.410;2023-05-01T15:22:16;19.70;1.00
13711;DHT22;6927;51.256;9.410;2023-05-01T15:24:42;19.80;1.00
13711;DHT22;6927;51.256;9.410;2023-05-01T15:27:07;19.80;1.00
13711;DHT22;6927;51.256;9.410;2023-05-01T15:29:33;19.80;1.00
13711;DHT22;6927;51.256;9.410;2023-05-01T15:31:59;19.80;1.00
13711;DHT22;6927;51.256;9.410;2023-05-01T15:34:25;19.70;1.00
13711;DHT22;6927;51.256;9.410;2023-05-01T15:36:50;19.60;1.00
13711;DHT22;6927;51.256;9.410;2023-05-01T15:39:16;19.60;1.00
13711;DHT22;6927;51.256;9.410;2023-05-01T15:41:42;19.50;1.00
13711;DHT22;6927;51.256;9.410;2023-05-01T15:44:08;19.60;1.00
13711;DHT22;6927;51.256;9.410;2023-05-01T15:46:38;19.50;1.00
13711;DHT22;6927;51.256;9.410;2023-05-01T15:49:08;19.40;1.00
13711;DHT22;6927;51.256;9.410;2023-05-01T15:51:34;19.40;1.00
13711;DHT22;6927;51.256;9.410;2023-05-01T15:54:00;19.40;1.00
13711;DHT22;6927;51.256;9.410;2023-05-01T15:56:27;19.30;1.00
13711;DHT22;6927;51.256;9.410;2023-05-01T15:58:52;19.30;1.00
13711;DHT22;6927;51.256;9.410;2023-05-01T16:01:18;19.30;1.00
13711;DHT22;6927;51.256;9.410;2023-05-01T16:03:45;19.30;1.00
13711;DHT22;6927;51.256;9.410;2023-05-01T16:06:12;19.30;1.00
13711;DHT22;6927;51.256;9.410;2023-05-01T16:08:38;19.20;1.00
13711;DHT22;6927;51.256;9.410;2023-05-01T16:11:04;19.20;1.00
13711;DHT22;6927;51.256;9.410;2023-05-01T16:13:29;19.20;1.00
13711;DHT22;6927;51.256;9.410;2023-05-01T16:15:55;19.20;1.00
13711;DHT22;6927;51.256;9.410;2023-05-01T16:18:23;19.20;1.00
13711;DHT22;6927;51.256;9.410;2023-05-01T16:20:49;19.10;1.00
13711;DHT22;6927;51.256;9.410;2023-05-01T16:23:17;19.10;1.00
13711;DHT22;6927;51.256;9.410;2023-05-01T16:25:43;19.10;1.00
13711;DHT22;6927;51.256;9.410;2023-05-01T16:28:10;19.10;1.00
13711;DHT22;6927;51.256;9.410;2023-05-01T16:30:40;19.00;1.00
13711;DHT22;6927;51.256;9.410;2023-05-01T16:33:15;18.90;1.00
13711;DHT22;6927;51.256;9.410;2023-05-01T16:35:41;18.90;1.00
13711;DHT22;6927;51.256;9.410;2023-05-01T16:38:06;18.80;1.00
13711;DHT22;6927;51.256;9.410;2023-05-01T16:40:32;18.80;1.00